Time;durP1;ratioP1;P1;durP2;ratioP2;P2;SDS_P1;SDS_P2;PMS_P1;PMS_P2;Temp;Humidity;BMP_temperature;BMP_pressure;BME280_temperature;BME280_humidity;BME280_pressure;Samples;Min_cycle;Max_cycle;Signal;HPM_P1;HPM_P2
2022/01/05 00:00:31;;;;;;;;;1.33;0.00;;;;;17.19;51.72;100195.88;5032873;28;11423;-39
2022/01/05 00:02:56;;;;;;;;;0.00;0.00;;;;;17.19;51.48;100200.28;5032526;28;8783;-39
2022/01/05 00:05:21;;;;;;;;;0.00;0.00;;;;;17.18;51.78;100199.41;5032172;28;8752;-39
2022/01/05 00:07:47;;;;;;;;;1.00;0.00;;;;;17.18;51.45;100194.13;5032272;28;8795;-40
2022/01/05 00:10:12;;;;;;;;;0.00;0.00;;;;;17.15;51.43;100203.84;5032653;28;8830;-40
2022/01/05 00:12:37;;;;;;;;;0.00;0.00;;;;;17.16;51.15;100208.25;5031582;28;8800;-40
2022/01/05 00:15:03;;;;;;;;;1.00;0.00;;;;;17.15;51.21;100196.81;5032014;28;8905;-40
2022/01/05 00:17:29;;;;;;;;;0.00;0.00;;;;;17.14;51.17;100197.69;5032371;28;9574;-39
2022/01/05 00:19:55;;;;;;;;;1.00;1.00;;;;;17.13;51.04;100203.91;5031443;28;9014;-38
2022/01/05 00:22:20;;;;;;;;;0.00;0.00;;;;;17.12;51.26;100188.09;5032599;28;11378;-39
2022/01/05 00:24:46;;;;;;;;;0.67;0.67;;;;;17.13;51.27;100193.34;5031977;28;8788;-39
2022/01/05 00:27:11;;;;;;;;;0.00;0.00;;;;;17.10;51.17;100193.38;5031744;28;8776;-40
2022/01/05 00:29:37;;;;;;;;;1.33;0.00;;;;;17.11;50.90;100194.25;5032006;28;8791;-39
2022/01/05 00:32:02;;;;;;;;;1.00;1.00;;;;;17.10;51.21;100198.66;5032024;28;8784;-39
2022/01/05 00:34:27;;;;;;;;;1.33;1.00;;;;;17.08;50.65;100195.19;5031623;28;8788;-39
2022/01/05 00:36:53;;;;;;;;;0.00;0.00;;;;;17.07;50.78;100190.78;5031863;28;8807;-38
2022/01/05 00:39:18;;;;;;;;;0.00;0.00;;;;;17.09;50.91;100196.06;5032138;28;8780;-40
2022/01/05 00:41:43;;;;;;;;;1.00;0.00;;;;;17.08;51.07;100200.44;5030938;28;8784;-39
2022/01/05 00:44:08;;;;;;;;;0.00;0.00;;;;;17.09;50.93;100206.59;5032077;28;8788;-39
2022/01/05 00:46:34;;;;;;;;;0.67;0.67;;;;;17.09;51.01;100198.69;5031990;28;8768;-39
2022/01/05 00:48:59;;;;;;;;;0.00;0.00;;;;;17.09;50.47;100196.06;5031120;28;9650;-38
2022/01/05 00:51:24;;;;;;;;;1.00;1.00;;;;;17.08;50.84;100205.72;5031913;28;8768;-38
2022/01/05 00:53:49;;;;;;;;;0.00;0.00;;;;;17.08;50.67;100196.94;5031106;28;8764;-40
2022/01/05 00:56:15;;;;;;;;;0.00;0.00;;;;;17.07;50.39;100198.69;5030722;28;8869;-38
2022/01/05 00:58:40;;;;;;;;;1.67;0.67;;;;;17.07;50.24;100206.59;5030920;28;8818;-39
2022/01/05 01:01:17;;;;;;;;;1.00;1.00;;;;;17.06;50.31;100201.38;5031981;28;8786;-39
2022/01/05 01:03:43;;;;;;;;;1.00;1.00;;;;;17.04;50.52;100201.38;5030705;28;9619;-40
2022/01/05 01:06:08;;;;;;;;;0.33;0.00;;;;;17.04;50.26;100198.75;5031433;28;9082;-40
2022/01/05 01:08:39;;;;;;;;;1.00;1.00;;;;;17.03;50.39;100196.13;5031011;28;8913;-39
2022/01/05 01:11:04;;;;;;;;;1.00;1.00;;;;;17.02;50.14;100210.22;5031507;28;8785;-38
2022/01/05 01:13:30;;;;;;;;;1.00;1.00;;;;;17.01;50.32;100209.34;5031692;28;9032;-40
2022/01/05 01:15:55;;;;;;;;;1.00;0.00;;;;;17.00;50.05;100210.25;5030226;28;8819;-39
2022/01/05 01:18:20;;;;;;;;;0.00;0.00;;;;;16.99;50.38;100207.59;5031423;28;8870;-39
2022/01/05 01:20:50;;;;;;;;;0.33;0.33;;;;;16.99;50.19;100205.84;5031152;28;8776;-39
2022/01/05 01:23:22;;;;;;;;;0.67;0.67;;;;;17.00;50.05;100212.88;5030943;28;8890;-39
2022/01/05 01:25:48;;;;;;;;;0.00;0.00;;;;;16.98;50.16;100212.03;5030978;28;9150;-39
2022/01/05 01:28:13;;;;;;;;;0.00;0.00;;;;;16.99;49.86;100212.88;5031152;28;9599;-39
2022/01/05 01:30:39;;;;;;;;;0.00;0.00;;;;;16.99;50.14;100216.41;5030817;28;8861;-40
2022/01/05 01:33:04;;;;;;;;;1.67;1.00;;;;;16.98;49.87;100206.75;5031208;28;8771;-39
2022/01/05 01:35:29;;;;;;;;;2.00;1.00;;;;;16.97;49.90;100207.66;5031380;28;8768;-39
2022/01/05 01:37:55;;;;;;;;;2.00;1.00;;;;;16.97;49.62;100212.06;5029976;28;8808;-39
2022/01/05 01:40:21;;;;;;;;;0.00;0.00;;;;;16.96;49.73;100210.28;5031144;28;8798;-40
2022/01/05 01:42:47;;;;;;;;;0.00;0.00;;;;;16.97;49.65;100212.06;5030992;28;8783;-39
2022/01/05 01:45:13;;;;;;;;;1.00;0.00;;;;;16.96;49.70;100212.94;5030245;28;9013;-39
2022/01/05 01:47:39;;;;;;;;;2.00;2.00;;;;;16.97;49.53;100218.19;5031047;28;8998;-39
2022/01/05 01:50:05;;;;;;;;;1.00;0.67;;;;;16.97;49.76;100209.41;5031391;28;8941;-39
2022/01/05 01:52:30;;;;;;;;;2.00;2.00;;;;;16.95;49.64;100217.34;5030600;28;9111;-39
2022/01/05 01:54:56;;;;;;;;;0.33;0.33;;;;;16.96;49.61;100223.47;5031149;28;8780;-39
2022/01/05 01:57:21;;;;;;;;;1.00;1.00;;;;;16.97;49.69;100225.22;5031213;28;8925;-39
2022/01/05 01:59:48;;;;;;;;;1.00;1.00;;;;;16.98;49.39;100216.44;5030665;28;8807;-39
2022/01/05 02:02:15;;;;;;;;;0.00;0.00;;;;;16.97;49.59;100219.97;5031579;28;8768;-39
2022/01/05 02:04:42;;;;;;;;;1.33;0.00;;;;;16.96;49.33;100231.41;5030513;28;9035;-38
2022/01/05 02:07:07;;;;;;;;;0.00;0.00;;;;;16.95;49.11;100232.28;5034191;28;9210;-39
2022/01/05 02:09:32;;;;;;;;;0.00;0.00;;;;;16.92;49.05;100226.16;5033930;28;9003;-39
2022/01/05 02:11:58;;;;;;;;;0.00;0.00;;;;;16.94;49.34;100230.56;5034003;28;8760;-38
2022/01/05 02:14:23;;;;;;;;;0.00;0.00;;;;;16.92;49.36;100225.28;5034830;28;9550;-39
2022/01/05 02:16:48;;;;;;;;;0.00;0.00;;;;;16.91;49.30;100228.81;5034031;28;9633;-40
2022/01/05 02:19:14;;;;;;;;;1.00;1.00;;;;;16.89;49.01;100234.13;5034000;28;8796;-39
2022/01/05 02:21:39;;;;;;;;;0.00;0.00;;;;;16.91;49.14;100232.31;5034832;28;8784;-39
2022/01/05 02:24:06;;;;;;;;;0.00;0.00;;;;;16.89;49.20;100226.22;5034356;28;8799;-38
2022/01/05 02:26:33;;;;;;;;;1.00;1.00;;;;;16.89;49.10;100226.22;5033742;28;8768;-38
2022/01/05 02:28:58;;;;;;;;;0.33;0.33;;;;;16.90;48.83;100229.72;5034418;28;9013;-41
2022/01/05 02:31:23;;;;;;;;;0.67;0.67;;;;;16.88;48.86;100240.28;5034360;28;9020;-39
2022/01/05 02:33:49;;;;;;;;;0.67;0.67;;;;;16.89;48.89;100235.88;5033552;28;8802;-39
2022/01/05 02:36:18;;;;;;;;;2.00;0.33;;;;;16.90;49.01;100241.16;5034192;28;8864;-40
2022/01/05 02:38:44;;;;;;;;;2.00;2.00;;;;;16.92;49.08;100247.25;5034109;28;8811;-39
2022/01/05 02:41:10;;;;;;;;;1.00;0.00;;;;;16.93;49.09;100240.22;5033892;28;9190;-40
2022/01/05 02:43:37;;;;;;;;;0.33;0.33;;;;;16.94;48.86;100246.38;5034259;28;8759;-40
2022/01/05 02:46:03;;;;;;;;;0.00;0.00;;;;;16.91;48.93;100237.59;5033885;28;9002;-39
2022/01/05 02:48:30;;;;;;;;;1.00;0.33;;;;;16.91;48.71;100237.59;5033331;28;9904;-39
2022/01/05 02:50:57;;;;;;;;;2.00;0.67;;;;;16.89;48.95;100238.53;5034046;28;9159;-38
2022/01/05 02:53:22;;;;;;;;;0.00;0.00;;;;;16.90;48.85;100241.16;5033926;28;9171;-38
2022/01/05 02:55:50;;;;;;;;;2.00;0.33;;;;;16.89;48.65;100242.03;5033106;28;9123;-39
2022/01/05 02:58:15;;;;;;;;;1.00;1.00;;;;;16.89;48.82;100252.59;5034211;28;8834;-39
2022/01/05 03:00:41;;;;;;;;;1.00;1.00;;;;;16.90;48.83;100246.44;5033558;28;9174;-39
2022/01/05 03:03:06;;;;;;;;;2.00;2.00;;;;;16.89;48.72;100239.41;5033351;28;8795;-39
2022/01/05 03:05:31;;;;;;;;;0.33;0.33;;;;;16.90;48.64;100243.78;5033247;28;8788;-39
2022/01/05 03:07:57;;;;;;;;;2.00;2.00;;;;;16.92;48.68;100249.03;5033525;28;8791;-39
2022/01/05 03:10:22;;;;;;;;;1.00;1.00;;;;;16.91;48.59;100253.41;5033416;28;8756;-39
2022/01/05 03:12:47;;;;;;;;;1.67;0.33;;;;;16.89;48.45;100252.59;5033474;28;8776;-39
2022/01/05 03:15:13;;;;;;;;;0.00;0.00;;;;;16.89;48.27;100259.63;5032791;28;8815;-38
2022/01/05 03:17:40;;;;;;;;;1.00;0.00;;;;;16.87;48.28;100264.91;5032820;28;8815;-40
2022/01/05 03:20:07;;;;;;;;;1.00;1.00;;;;;16.85;48.62;100257.91;5033695;28;8775;-39
2022/01/05 03:22:33;;;;;;;;;0.00;0.00;;;;;16.87;48.43;100269.34;5032821;28;9346;-39
2022/01/05 03:25:01;;;;;;;;;1.00;0.00;;;;;16.88;48.61;100281.59;5033533;28;9163;-39
2022/01/05 03:27:26;;;;;;;;;0.00;0.00;;;;;16.87;48.51;100272.81;5032012;28;8776;-39
2022/01/05 03:29:52;;;;;;;;;1.00;1.00;;;;;16.86;48.45;100267.56;5032454;28;9432;-39
2022/01/05 03:32:20;;;;;;;;;0.00;0.00;;;;;16.86;48.52;100259.66;5033552;28;8780;-40
2022/01/05 03:34:47;;;;;;;;;2.00;1.00;;;;;16.85;48.32;100266.69;5033058;28;8858;-40
2022/01/05 03:37:12;;;;;;;;;2.00;1.00;;;;;16.87;48.29;100264.06;5032546;28;9276;-39
2022/01/05 03:39:38;;;;;;;;;1.00;1.00;;;;;16.85;48.12;100258.78;5033352;28;9245;-40
2022/01/05 03:42:04;;;;;;;;;2.00;0.67;;;;;16.85;48.56;100264.06;5032628;28;8796;-39
2022/01/05 03:44:29;;;;;;;;;1.00;1.00;;;;;16.84;48.33;100251.75;5032673;28;9014;-38
2022/01/05 03:46:55;;;;;;;;;1.00;1.00;;;;;16.85;48.15;100252.63;5032889;28;8779;-39
2022/01/05 03:49:21;;;;;;;;;2.67;1.00;;;;;16.86;48.26;100260.53;5033106;28;8776;-39
2022/01/05 03:51:46;;;;;;;;;0.33;0.33;;;;;16.85;48.14;100257.91;5032205;28;9078;-39
2022/01/05 03:54:12;;;;;;;;;2.00;0.00;;;;;16.84;48.15;100249.13;5032741;28;8780;-39
2022/01/05 03:56:37;;;;;;;;;1.00;1.00;;;;;16.84;47.99;100264.94;5033093;28;8875;-39
2022/01/05 03:59:02;;;;;;;;;1.00;1.00;;;;;16.83;48.54;100254.44;5031772;28;8811;-40
2022/01/05 04:01:28;;;;;;;;;2.00;1.00;;;;;16.84;48.05;100258.78;5032902;28;8795;-40
2022/01/05 04:03:53;;;;;;;;;0.00;0.00;;;;;16.83;47.89;100257.91;5032661;28;8873;-39
2022/01/05 04:06:18;;;;;;;;;1.67;1.00;;;;;16.82;48.06;100255.31;5032108;28;8869;-38
2022/01/05 04:08:43;;;;;;;;;1.00;0.00;;;;;16.81;48.10;100267.63;5032278;28;8803;-39
2022/01/05 04:11:09;;;;;;;;;1.33;1.33;;;;;16.81;48.02;100269.38;5032577;28;8796;-39
2022/01/05 04:13:34;;;;;;;;;0.00;0.00;;;;;16.82;48.06;100274.66;5032075;28;8825;-38
2022/01/05 04:15:59;;;;;;;;;1.33;1.33;;;;;16.82;48.20;100261.47;5031986;28;8812;-40
2022/01/05 04:18:25;;;;;;;;;0.00;0.00;;;;;16.83;48.03;100284.28;5031737;28;8807;-40
2022/01/05 04:20:50;;;;;;;;;0.67;0.67;;;;;16.83;48.01;100278.16;5032256;28;9543;-40
2022/01/05 04:23:18;;;;;;;;;2.00;1.00;;;;;16.84;47.99;100271.97;5032508;28;8795;-39
2022/01/05 04:25:43;;;;;;;;;0.00;0.00;;;;;16.84;48.02;100275.50;5031477;28;8791;-39
2022/01/05 04:28:08;;;;;;;;;2.00;1.00;;;;;16.82;47.86;100277.28;5031948;28;9016;-38
2022/01/05 04:30:33;;;;;;;;;0.00;0.00;;;;;16.82;47.79;100276.41;5031765;28;8807;-39
2022/01/05 04:32:59;;;;;;;;;1.00;1.00;;;;;16.81;47.97;100275.53;5031003;28;8780;-39
2022/01/05 04:35:24;;;;;;;;;0.00;0.00;;;;;16.81;47.88;100282.56;5032204;28;8784;-40
2022/01/05 04:37:50;;;;;;;;;2.00;2.00;;;;;16.79;47.75;100287.00;5031854;28;8787;-39
2022/01/05 04:40:15;;;;;;;;;1.00;1.00;;;;;16.79;47.76;100290.53;5031409;28;8792;-39
2022/01/05 04:42:40;;;;;;;;;0.00;0.00;;;;;16.79;47.95;100289.63;5031667;28;8780;-39
2022/01/05 04:45:06;;;;;;;;;2.00;1.00;;;;;16.79;47.73;100298.44;5031992;28;8783;-40
2022/01/05 04:47:31;;;;;;;;;2.33;1.00;;;;;16.79;47.80;100289.63;5031237;28;8861;-40
2022/01/05 04:49:57;;;;;;;;;0.00;0.00;;;;;16.79;47.96;100301.06;5031781;28;8902;-39
2022/01/05 04:52:22;;;;;;;;;0.33;0.33;;;;;16.78;47.64;100293.16;5031911;28;8845;-39
2022/01/05 04:54:47;;;;;;;;;0.00;0.00;;;;;16.78;48.25;100291.41;5030811;28;8842;-39
2022/01/05 04:57:16;;;;;;;;;1.33;1.00;;;;;16.78;48.39;100290.53;5032053;28;8800;-39
2022/01/05 04:59:42;;;;;;;;;1.00;1.00;;;;;16.80;48.02;100288.72;5031380;28;8910;-40
2022/01/05 05:02:08;;;;;;;;;1.00;1.00;;;;;16.80;48.25;100291.38;5031173;28;9210;-39
2022/01/05 05:04:33;;;;;;;;;1.00;1.00;;;;;16.79;48.16;100301.06;5031820;28;8797;-39
2022/01/05 05:06:58;;;;;;;;;1.00;1.00;;;;;16.79;48.19;100297.56;5031339;28;8787;-40
2022/01/05 05:09:24;;;;;;;;;0.00;0.00;;;;;16.80;48.26;100305.41;5030926;28;8783;-40
2022/01/05 05:11:51;;;;;;;;;1.00;1.00;;;;;16.79;47.91;100295.78;5031200;28;8782;-39
2022/01/05 05:14:16;;;;;;;;;1.00;0.00;;;;;16.77;47.98;100305.47;5031583;28;8779;-39
2022/01/05 05:16:41;;;;;;;;;0.00;0.00;;;;;16.76;48.18;100306.34;5030276;28;9120;-39
2022/01/05 05:19:07;;;;;;;;;1.00;1.00;;;;;16.76;48.08;100316.91;5031486;28;9653;-38
2022/01/05 05:21:32;;;;;;;;;1.00;1.00;;;;;16.76;48.20;100310.75;5031371;28;8865;-39
2022/01/05 05:23:57;;;;;;;;;1.00;1.00;;;;;16.77;47.98;100310.75;5030480;28;8786;-39
2022/01/05 05:26:22;;;;;;;;;1.00;1.00;;;;;16.75;48.05;100304.63;5031561;28;8768;-40
2022/01/05 05:28:48;;;;;;;;;0.00;0.00;;;;;16.76;47.99;100302.84;5030420;28;8842;-39
2022/01/05 05:31:13;;;;;;;;;1.00;1.00;;;;;16.75;48.00;100309.03;5031357;28;8799;-40
2022/01/05 05:33:38;;;;;;;;;1.67;1.67;;;;;16.75;48.18;100306.38;5031122;28;8767;-40
2022/01/05 05:36:04;;;;;;;;;1.67;1.67;;;;;16.76;48.10;100303.72;5030222;28;8893;-41
2022/01/05 05:38:29;;;;;;;;;2.67;2.00;;;;;16.77;47.98;100302.81;5031160;28;8816;-39
2022/01/05 05:40:54;;;;;;;;;0.00;0.00;;;;;16.76;48.25;100300.19;5030164;28;8784;-39
2022/01/05 05:43:20;;;;;;;;;1.00;1.00;;;;;16.75;48.01;100301.13;5030446;28;8772;-39
2022/01/05 05:45:45;;;;;;;;;0.33;0.33;;;;;16.75;48.07;100302.00;5031053;28;8776;-40
2022/01/05 05:48:10;;;;;;;;;3.33;2.33;;;;;16.76;48.07;100300.19;5031141;28;8788;-39
2022/01/05 05:50:36;;;;;;;;;1.00;1.00;;;;;16.75;48.08;100312.53;5030139;28;8796;-40
2022/01/05 05:53:01;;;;;;;;;1.00;1.00;;;;;16.74;48.07;100307.28;5030694;28;8807;-40
2022/01/05 05:55:27;;;;;;;;;0.00;0.00;;;;;16.73;47.91;100309.03;5031009;28;8825;-39
2022/01/05 05:57:52;;;;;;;;;1.00;1.00;;;;;16.73;48.19;100303.75;5029640;28;8831;-39
2022/01/05 06:00:17;;;;;;;;;1.00;1.00;;;;;16.74;47.98;100308.16;5031136;28;8876;-39
2022/01/05 06:02:43;;;;;;;;;1.00;1.00;;;;;16.75;47.97;100309.03;5030625;28;9543;-39
2022/01/05 06:05:08;;;;;;;;;0.67;0.67;;;;;16.75;47.82;100316.94;5029612;28;8804;-38
2022/01/05 06:07:34;;;;;;;;;2.00;1.00;;;;;16.76;48.03;100314.25;5031074;28;8802;-38
2022/01/05 06:09:59;;;;;;;;;1.00;1.00;;;;;16.76;48.06;100302.84;5030867;28;8784;-40
2022/01/05 06:12:25;;;;;;;;;1.00;1.00;;;;;16.78;48.15;100308.97;5030419;28;8783;-39
2022/01/05 06:14:51;;;;;;;;;1.00;1.00;;;;;16.77;48.03;100309.84;5030500;28;8799;-39
2022/01/05 06:17:16;;;;;;;;;1.33;1.33;;;;;16.77;47.93;100320.41;5030592;28;9155;-39
2022/01/05 06:19:42;;;;;;;;;1.00;1.00;;;;;16.78;48.08;100317.75;5029991;28;8780;-39
2022/01/05 06:22:07;;;;;;;;;0.00;0.00;;;;;16.77;48.10;100315.13;5030942;28;8882;-39
2022/01/05 06:24:34;;;;;;;;;1.00;1.00;;;;;16.76;48.19;100323.94;5030688;28;8776;-39
2022/01/05 06:26:59;;;;;;;;;1.00;1.00;;;;;16.77;47.89;100331.81;5029921;28;8775;-39
2022/01/05 06:29:25;;;;;;;;;1.00;1.00;;;;;16.76;47.85;100322.16;5030887;28;9137;-38
2022/01/05 06:31:50;;;;;;;;;1.00;1.00;;;;;16.78;48.10;100319.53;5030364;28;8772;-38
2022/01/05 06:34:15;;;;;;;;;1.00;1.00;;;;;16.80;47.82;100342.34;5029860;28;8776;-38
2022/01/05 06:36:40;;;;;;;;;0.67;0.67;;;;;16.80;48.18;100336.19;5030484;28;8906;-39
2022/01/05 06:39:06;;;;;;;;;1.00;1.00;;;;;16.81;47.97;100344.09;5030058;28;8815;-39
2022/01/05 06:41:31;;;;;;;;;1.00;1.00;;;;;16.81;47.97;100337.94;5030606;28;8807;-40
2022/01/05 06:43:56;;;;;;;;;1.00;1.00;;;;;16.80;47.97;100341.47;5030128;28;8803;-39
2022/01/05 06:46:22;;;;;;;;;2.00;1.00;;;;;16.79;47.81;100345.88;5029666;28;8792;-38
2022/01/05 06:48:47;;;;;;;;;2.00;2.00;;;;;16.79;47.96;100348.53;5030488;28;8772;-39
2022/01/05 06:51:12;;;;;;;;;1.00;1.00;;;;;16.81;48.07;100346.72;5030615;28;9573;-39
2022/01/05 06:53:37;;;;;;;;;3.67;3.00;;;;;16.79;47.98;100343.25;5032004;28;8776;-39
2022/01/05 06:56:03;;;;;;;;;1.33;1.00;;;;;16.81;48.03;100353.75;5033628;28;8788;-39
2022/01/05 06:58:29;;;;;;;;;3.00;1.00;;;;;16.81;47.77;100351.13;5033898;28;8818;-39
2022/01/05 07:00:55;;;;;;;;;0.33;0.33;;;;;16.81;47.81;100349.34;5032986;28;8811;-40
2022/01/05 07:03:21;;;;;;;;;0.00;0.00;;;;;16.82;48.06;100353.75;5033863;28;8776;-39
2022/01/05 07:05:46;;;;;;;;;1.00;1.00;;;;;16.81;48.18;100356.38;5033738;28;9671;-40
2022/01/05 07:08:11;;;;;;;;;0.00;0.00;;;;;16.79;47.75;100358.19;5033234;28;8811;-39
2022/01/05 07:10:36;;;;;;;;;1.33;1.00;;;;;16.77;47.96;100352.91;5033692;28;8768;-39
2022/01/05 07:13:02;;;;;;;;;0.33;0.00;;;;;16.80;47.91;100370.44;5033028;28;8780;-40
2022/01/05 07:15:28;;;;;;;;;3.67;3.00;;;;;16.83;47.77;100360.75;5032664;28;8843;-39
2022/01/05 07:17:53;;;;;;;;;2.00;1.33;;;;;16.82;48.07;100366.06;5033435;28;8820;-40
2022/01/05 07:20:19;;;;;;;;;1.00;1.00;;;;;16.81;48.64;100377.47;5033832;28;8772;-40
2022/01/05 07:22:44;;;;;;;;;2.00;1.00;;;;;16.84;49.61;100374.81;5032056;28;8828;-39
2022/01/05 07:25:10;;;;;;;;;5.33;1.33;;;;;16.92;50.32;100380.88;5033629;28;8784;-40
2022/01/05 07:27:37;;;;;;;;;3.33;2.33;;;;;16.97;50.93;100386.09;5033687;28;8895;-39
2022/01/05 07:30:04;;;;;;;;;3.33;2.00;;;;;17.06;51.85;100393.91;5032418;28;8897;-39
2022/01/05 07:32:30;;;;;;;;;3.00;2.00;;;;;17.11;53.27;100399.97;5032898;28;9299;-39
2022/01/05 07:34:56;;;;;;;;;3.00;3.00;;;;;17.17;54.26;100398.13;5033145;28;10094;-40
2022/01/05 07:37:21;;;;;;;;;3.00;3.00;;;;;17.19;54.59;100391.09;5032361;28;9613;-39
2022/01/05 07:39:47;;;;;;;;;3.33;3.33;;;;;17.22;54.54;100388.41;5033045;28;8825;-38
2022/01/05 07:42:12;;;;;;;;;3.00;2.67;;;;;17.35;56.33;100397.94;5031773;28;8768;-39
2022/01/05 07:44:38;;;;;;;;;6.00;4.67;;;;;17.37;55.48;100404.03;5028663;28;8911;-38
2022/01/05 07:47:04;;;;;;;;;5.67;5.33;;;;;17.35;56.03;100397.06;5031577;28;9542;-38
2022/01/05 07:49:29;;;;;;;;;5.33;3.33;;;;;17.30;54.92;100412.06;5031616;28;9246;-39
2022/01/05 07:52:01;;;;;;;;;4.00;2.00;;;;;16.81;53.83;100404.72;5032583;28;8894;-39
2022/01/05 07:54:26;;;;;;;;;3.00;2.00;;;;;16.30;49.90;100419.25;5032874;28;8768;-40
2022/01/05 07:56:51;;;;;;;;;3.67;3.00;;;;;16.13;52.29;100421.13;5030327;28;9182;-38
2022/01/05 07:59:16;;;;;;;;;2.00;2.00;;;;;16.32;53.87;100443.81;5032387;28;8931;-38
2022/01/05 08:01:42;;;;;;;;;2.00;2.00;;;;;16.69;55.50;100436.47;5031963;28;8780;-39
2022/01/05 08:04:07;;;;;;;;;5.67;3.00;;;;;16.99;54.68;100430.00;5031039;28;9549;-39
2022/01/05 08:06:32;;;;;;;;;4.00;4.00;;;;;17.17;54.28;100434.22;5032315;28;8858;-38
2022/01/05 08:08:57;;;;;;;;;2.00;2.00;;;;;17.30;55.18;100441.97;5048792;28;8793;-38
2022/01/05 08:11:23;;;;;;;;;3.00;3.00;;;;;17.39;55.19;100441.84;5051360;28;8773;-40
2022/01/05 08:13:48;;;;;;;;;2.00;2.00;;;;;17.51;54.82;100453.16;5032244;28;8815;-38
2022/01/05 08:16:14;;;;;;;;;1.33;1.33;;;;;17.64;54.05;100452.09;5031778;28;8882;-40
2022/01/05 08:18:39;;;;;;;;;1.67;1.67;;;;;17.71;54.41;100465.22;5030717;28;10389;-39
2022/01/05 08:21:05;;;;;;;;;2.00;2.00;;;;;17.67;54.62;100459.97;5032574;28;8780;-39
2022/01/05 08:23:30;;;;;;;;;3.00;3.00;;;;;17.67;54.78;100459.97;5030430;28;8796;-39
2022/01/05 08:25:56;;;;;;;;;2.00;2.00;;;;;17.66;54.72;100469.66;5030349;28;8796;-41
2022/01/05 08:28:21;;;;;;;;;3.67;3.33;;;;;17.65;54.81;100464.44;5031982;28;8857;-39
2022/01/05 08:30:47;;;;;;;;;1.67;1.67;;;;;17.65;55.15;100462.66;5031640;28;8870;-39
2022/01/05 08:33:14;;;;;;;;;1.00;1.00;;;;;17.65;55.20;100467.94;5029512;28;8807;-39
2022/01/05 08:35:40;;;;;;;;;2.00;1.00;;;;;17.67;55.20;100466.13;5031459;28;9167;-38
2022/01/05 08:38:06;;;;;;;;;3.33;2.67;;;;;17.69;55.20;100471.41;5031495;28;9301;-39
2022/01/05 08:40:34;;;;;;;;;2.33;2.00;;;;;17.70;55.02;100466.09;5030602;28;8802;-39
2022/01/05 08:43:04;;;;;;;;;2.00;2.00;;;;;17.69;55.18;100469.66;5029845;28;10046;-38
2022/01/05 08:45:29;;;;;;;;;2.33;1.33;;;;;17.72;55.36;100468.72;5030008;28;11075;-37
2022/01/05 08:47:56;;;;;;;;;2.00;2.00;;;;;17.71;55.73;100478.41;5029025;28;9127;-38
2022/01/05 08:50:24;;;;;;;;;0.33;0.33;;;;;17.66;55.11;100477.59;5031893;28;8778;-38
2022/01/05 08:52:50;;;;;;;;;2.00;2.00;;;;;17.60;54.67;100485.59;5033968;28;9172;-38
2022/01/05 08:55:18;;;;;;;;;3.00;3.00;;;;;17.55;54.87;100483.88;5051313;28;9097;-39
2022/01/05 08:57:44;;;;;;;;;2.67;2.00;;;;;17.53;54.77;100496.22;5031547;28;9288;-39
2022/01/05 09:00:10;;;;;;;;;2.33;1.00;;;;;17.52;54.59;100502.38;5031202;28;9833;-39
2022/01/05 09:02:36;;;;;;;;;2.00;2.00;;;;;17.53;55.01;100497.09;5018750;28;10922;-37
2022/01/05 09:05:05;;;;;;;;;4.33;4.00;;;;;17.51;55.18;100506.78;5012002;28;9203;-38
2022/01/05 09:07:30;;;;;;;;;2.67;1.67;;;;;17.49;54.71;100503.31;5010699;28;8802;-38
2022/01/05 09:09:55;;;;;;;;;3.00;2.00;;;;;17.49;54.76;100494.50;5010994;28;9265;-38
2022/01/05 09:12:21;;;;;;;;;1.00;1.00;;;;;17.50;54.68;100512.09;5009826;28;8933;-39
2022/01/05 09:14:46;;;;;;;;;2.00;1.00;;;;;17.51;54.60;100505.94;5010107;28;8777;-38
2022/01/05 09:17:11;;;;;;;;;1.67;1.00;;;;;17.50;54.57;100512.09;5010957;28;9546;-39
2022/01/05 09:19:37;;;;;;;;;3.00;2.00;;;;;17.49;54.61;100505.06;5011434;28;8774;-39
2022/01/05 09:22:03;;;;;;;;;1.33;1.33;;;;;17.49;54.42;100510.34;5009071;28;8818;-39
2022/01/05 09:24:29;;;;;;;;;2.00;2.00;;;;;17.48;54.47;100514.75;5011231;28;8778;-38
2022/01/05 09:27:03;;;;;;;;;1.00;1.00;;;;;17.48;54.52;100512.09;5010999;28;8963;-39
2022/01/05 09:29:35;;;;;;;;;0.00;0.00;;;;;17.88;53.50;100513.38;5010768;28;8790;-38
2022/01/05 09:32:08;;;;;;;;;2.33;1.00;;;;;17.75;53.83;100554.06;5009590;28;9186;-38
2022/01/05 09:34:37;;;;;;;;;1.00;1.00;;;;;17.64;54.23;100534.81;5011392;28;9220;-39
2022/01/05 09:37:09;;;;;;;;;2.00;2.00;;;;;17.59;53.91;100534.00;5009863;28;9144;-38
2022/01/05 09:42:19;;;;;;;;;2.00;2.00;;;;;17.55;54.38;100544.56;5012805;28;9095;-38
2022/01/05 09:44:48;;;;;;;;;2.00;1.00;;;;;17.55;54.23;100555.13;5030806;28;9348;-39
2022/01/05 09:47:44;;;;;;;;;3.33;2.00;;;;;17.56;54.24;100548.97;5017637;28;8806;-38
2022/01/05 09:50:11;;;;;;;;;3.67;2.67;;;;;17.54;54.11;100564.84;5009668;28;9097;-38
2022/01/05 09:52:39;;;;;;;;;3.00;3.00;;;;;17.54;54.26;100570.13;5008651;28;9278;-39
2022/01/05 09:55:06;;;;;;;;;1.00;1.00;;;;;17.94;53.79;100567.91;5011313;28;9326;-38
2022/01/05 09:57:32;;;;;;;;;2.00;1.00;;;;;18.01;53.04;100577.50;5009936;28;9350;-38
2022/01/05 09:59:58;;;;;;;;;3.00;1.00;;;;;17.82;53.45;100566.28;5010918;28;9019;-38
2022/01/05 10:02:24;;;;;;;;;1.67;1.33;;;;;17.66;53.86;100569.13;5009026;28;9139;-38
2022/01/05 10:04:53;;;;;;;;;3.00;1.33;;;;;17.56;53.60;100578.00;5010723;28;8798;-38
2022/01/05 10:07:19;;;;;;;;;3.33;2.33;;;;;17.47;54.07;100589.53;5017346;28;9144;-38
2022/01/05 10:09:45;;;;;;;;;1.00;1.00;;;;;17.43;53.96;100581.69;5010769;28;9036;-38
2022/01/05 10:12:13;;;;;;;;;1.00;1.00;;;;;17.39;53.94;100600.19;5008482;28;8814;-47
2022/01/05 10:14:46;;;;;;;;;3.00;3.00;;;;;17.38;54.11;100592.28;5010824;28;9075;-39
2022/01/05 10:17:13;;;;;;;;;5.00;3.00;;;;;17.35;53.75;100609.03;5009773;28;9032;-38
2022/01/05 10:19:42;;;;;;;;;1.67;1.67;;;;;17.31;53.76;100604.66;5010837;28;9261;-39
2022/01/05 10:22:26;;;;;;;;;1.00;1.00;;;;;17.30;53.75;100620.50;5008822;28;9067;-39
2022/01/05 10:24:56;;;;;;;;;2.67;2.00;;;;;17.27;53.80;100624.06;5010008;28;9018;-39
2022/01/05 10:27:23;;;;;;;;;2.00;2.00;;;;;17.29;53.78;100614.34;5012098;28;9200;-40
2022/01/05 10:30:13;;;;;;;;;1.33;1.00;;;;;17.58;54.16;100623.78;5014223;28;9099;-39
2022/01/05 10:32:42;;;;;;;;;1.00;1.00;;;;;18.33;52.35;100630.78;5011613;28;9314;-38
2022/01/05 10:35:19;;;;;;;;;0.00;0.00;;;;;18.78;51.64;100639.84;5013248;28;9283;-38
2022/01/05 10:37:54;;;;;;;;;0.00;0.00;;;;;19.00;51.12;100639.53;5013457;28;9076;-39
2022/01/05 10:40:22;;;;;;;;;3.00;3.00;;;;;19.06;50.98;100637.66;5013665;28;9862;-39
2022/01/05 10:42:50;;;;;;;;;1.00;1.00;;;;;18.66;51.78;100633.88;5020120;28;9215;-37
2022/01/05 10:45:19;;;;;;;;;0.00;0.00;;;;;18.28;52.31;100631.75;5013617;28;9167;-37
2022/01/05 10:48:01;;;;;;;;;1.67;0.67;;;;;18.05;52.47;100634.69;5013629;28;9215;-38
2022/01/05 10:50:26;;;;;;;;;3.00;2.00;;;;;17.96;53.27;100639.22;5013595;28;9200;-38
2022/01/05 10:52:54;;;;;;;;;3.00;1.00;;;;;17.88;53.64;100648.97;5011495;28;9407;-38
2022/01/05 10:55:23;;;;;;;;;1.00;1.00;;;;;17.83;53.53;100646.38;5014205;28;8770;-38
2022/01/05 10:57:58;;;;;;;;;1.00;1.00;;;;;17.81;53.56;100645.50;5013263;28;9380;-37
2022/01/05 11:00:36;;;;;;;;;1.67;1.00;;;;;17.81;53.56;100653.44;5013434;28;9009;-40
2022/01/05 11:03:01;;;;;;;;;1.00;1.00;;;;;17.79;53.73;100644.66;5012176;28;9131;-37
2022/01/05 11:05:27;;;;;;;;;1.00;1.00;;;;;17.77;53.85;100654.38;5013765;28;9178;-38
2022/01/05 11:08:06;;;;;;;;;3.00;1.00;;;;;17.76;53.75;100655.28;5012632;28;8924;-38
2022/01/05 11:10:31;;;;;;;;;2.00;1.00;;;;;17.74;53.95;100654.41;5014041;28;8851;-39
2022/01/05 11:12:56;;;;;;;;;1.00;1.00;;;;;17.75;54.23;100649.13;5012028;28;9088;-39
2022/01/05 11:15:33;;;;;;;;;3.67;2.67;;;;;17.76;54.13;100663.19;5012204;28;8821;-38
2022/01/05 11:18:12;;;;;;;;;0.00;0.00;;;;;17.75;53.88;100666.72;5011503;28;9688;-40
2022/01/05 11:20:43;;;;;;;;;0.67;0.67;;;;;17.68;53.94;100675.59;5012694;28;9085;-38
2022/01/05 11:23:09;;;;;;;;;1.67;1.67;;;;;17.58;53.87;100687.16;5012544;28;9185;-38
2022/01/05 11:25:36;;;;;;;;;0.00;0.00;;;;;17.86;54.13;100693.88;5012650;28;9228;-39
2022/01/05 11:28:03;;;;;;;;;2.00;1.00;;;;;18.17;53.29;100700.59;5011524;28;9122;-37
2022/01/05 11:30:29;;;;;;;;;1.00;1.00;;;;;17.97;53.54;100715.78;5013094;28;9198;-38
2022/01/05 11:32:55;;;;;;;;;1.00;1.00;;;;;17.87;54.12;100711.50;5012060;28;9113;-39